createdAt,value
2023-09-12T11:31:06.750Z,23.91
2023-09-12T11:33:35.093Z,23.93
2023-09-12T11:36:04.954Z,23.94
2023-09-12T11:38:36.284Z,24.02
2023-09-12T11:41:04.081Z,24.05
2023-09-12T11:43:32.936Z,24.09
2023-09-12T11:46:00.816Z,24.12
2023-09-12T11:48:32.415Z,24.23
2023-09-12T11:51:02.559Z,24.38
2023-09-12T11:53:33.764Z,24.53
2023-09-12T11:56:02.101Z,24.63
2023-09-12T11:58:30.042Z,24.72
2023-09-12T12:00:59.056Z,24.82
2023-09-12T12:03:28.431Z,24.86
2023-09-12T12:05:58.528Z,24.86
2023-09-12T12:10:59.711Z,24.84
2023-09-12T12:13:28.761Z,24.88
2023-09-12T12:15:57.044Z,24.96
2023-09-12T12:18:25.170Z,25.05
2023-09-12T12:20:53.190Z,25.11
2023-09-12T12:23:22.446Z,25.21
2023-09-12T12:25:50.299Z,25.30
2023-09-12T12:28:18.618Z,25.30
2023-09-12T12:30:47.992Z,25.23
2023-09-12T12:34:12.786Z,25.20
2023-09-12T12:36:04.789Z,25.12
2023-09-12T12:38:37.437Z,25.07
2023-09-12T12:41:06.710Z,25.00
2023-09-12T12:43:34.589Z,24.96
2023-09-12T12:46:02.592Z,24.93
2023-09-12T12:48:34.152Z,24.92
2023-09-12T12:51:07.617Z,24.90
2023-09-12T12:56:19.845Z,24.84
2023-09-12T12:58:49.752Z,24.93
2023-09-12T13:01:17.948Z,24.98
2023-09-12T13:03:46.907Z,25.05
2023-09-12T13:07:49.695Z,25.11
2023-09-12T13:10:17.440Z,25.17
2023-09-12T13:14:35.137Z,25.30
2023-09-12T13:17:04.057Z,25.39
2023-09-12T13:19:32.704Z,25.45
2023-09-12T13:22:00.579Z,25.58
2023-09-12T13:24:29.221Z,25.66
2023-09-12T13:26:56.971Z,25.72
2023-09-12T13:29:24.742Z,25.78
2023-09-12T13:31:54.071Z,25.82
2023-09-12T13:34:22.051Z,25.82
2023-09-12T13:36:58.121Z,25.83
2023-09-12T13:39:33.986Z,25.83
2023-09-12T13:42:04.290Z,25.89
2023-09-12T13:44:32.067Z,25.96
2023-09-12T13:47:01.286Z,26.01
2023-09-12T13:49:29.262Z,26.11
2023-09-12T13:51:57.094Z,26.14
2023-09-12T13:54:24.955Z,26.16
2023-09-12T13:56:52.692Z,26.23
2023-09-12T13:59:21.692Z,26.25
2023-09-12T14:01:49.720Z,26.22
2023-09-12T14:04:19.262Z,26.16
2023-09-12T14:06:47.487Z,26.11
2023-09-12T14:09:20.964Z,26.12
2023-09-12T14:11:51.257Z,26.15
2023-09-12T14:14:20.872Z,26.17
2023-09-12T14:16:49.771Z,26.17
2023-09-12T14:19:20.712Z,26.10
2023-09-12T14:21:49.480Z,26.12
2023-09-12T14:24:19.100Z,26.16
2023-09-12T14:26:49.930Z,26.16
2023-09-12T14:29:17.932Z,26.15
2023-09-12T14:31:51.305Z,26.16
2023-09-12T14:34:20.836Z,26.12
2023-09-12T14:36:49.002Z,26.06
2023-09-12T14:39:18.319Z,26.01
2023-09-12T14:41:50.806Z,26.06
2023-09-12T14:44:18.755Z,26.11
2023-09-12T14:46:46.817Z,26.15
2023-09-12T14:49:15.127Z,26.12
2023-09-12T14:51:44.485Z,26.06
2023-09-12T14:54:12.296Z,26.01
2023-09-12T14:56:40.359Z,25.99
2023-09-12T14:59:08.200Z,25.93
2023-09-12T15:01:36.638Z,25.89
2023-09-12T15:04:04.719Z,25.85
2023-09-12T15:06:34.495Z,25.86
2023-09-12T15:09:03.968Z,25.88
2023-09-12T15:11:32.434Z,25.89
2023-09-12T15:14:00.347Z,25.92
2023-09-12T15:16:28.439Z,25.91
2023-09-12T15:18:56.361Z,25.87
2023-09-12T15:21:24.179Z,25.84
2023-09-12T15:23:51.957Z,25.84
2023-09-12T15:26:21.121Z,25.91
2023-09-12T15:28:49.025Z,25.94
2023-09-12T15:31:16.885Z,25.97
2023-09-12T15:33:45.033Z,25.99
2023-09-12T15:36:13.129Z,26.00
2023-09-12T15:38:40.928Z,26.00
2023-09-12T16:41:39.524Z,23.56
2023-09-12T16:44:07.936Z,23.94
2023-09-12T16:46:35.873Z,24.21
2023-09-12T16:49:03.981Z,24.46
2023-09-12T16:51:31.971Z,24.64
2023-09-12T16:53:59.852Z,24.77
2023-09-12T16:56:27.660Z,24.89
2023-09-12T16:58:56.824Z,24.99
2023-09-12T17:01:24.800Z,25.05
2023-09-12T17:04:00.293Z,25.11
2023-09-12T17:06:30.689Z,25.16
2023-09-12T17:09:00.618Z,25.21
2023-09-12T17:11:28.462Z,25.20
2023-09-12T17:13:57.808Z,25.26
2023-09-12T17:16:25.661Z,25.27
2023-09-12T17:18:53.761Z,25.28
2023-09-12T17:21:21.575Z,25.26
2023-09-12T17:23:49.287Z,25.29
2023-09-12T17:26:17.889Z,25.30
2023-09-12T17:28:45.716Z,25.32
2023-09-12T17:31:16.200Z,25.33
2023-09-12T17:33:44.318Z,25.33
2023-09-12T17:36:12.337Z,25.33
2023-09-12T17:38:40.020Z,25.31
2023-09-12T17:41:07.767Z,25.32
2023-09-12T17:43:37.762Z,25.32
2023-09-12T17:46:11.387Z,25.31
2023-09-12T17:48:42.427Z,25.30
2023-09-12T17:51:10.856Z,25.29
2023-09-12T17:53:38.697Z,25.28
2023-09-12T17:56:06.689Z,25.26
2023-09-12T17:58:34.690Z,25.21
2023-09-12T18:01:04.867Z,25.14
2023-09-12T18:03:38.712Z,25.12
2023-09-12T18:06:08.138Z,25.10
2023-09-12T18:08:36.013Z,25.08
2023-09-12T18:11:04.692Z,25.05
2023-09-12T18:13:32.569Z,25.02
2023-09-12T18:16:00.452Z,24.99
2023-09-12T18:18:28.383Z,24.95
2023-09-12T18:20:57.612Z,24.93
2023-09-12T18:23:26.875Z,24.89
2023-09-12T18:25:54.694Z,24.92
2023-09-12T18:28:39.979Z,24.88
2023-09-12T18:31:08.454Z,24.87
2023-09-12T18:33:36.505Z,24.85
2023-09-12T18:36:05.509Z,24.79
2023-09-12T18:38:35.837Z,24.81
2023-09-12T18:41:03.685Z,24.80
2023-09-12T18:43:31.508Z,24.80
2023-09-12T18:45:59.683Z,24.79
2023-09-12T18:48:27.541Z,24.77
2023-09-12T18:50:55.351Z,24.74
2023-09-12T18:53:23.169Z,24.71
2023-09-12T18:55:52.417Z,24.65
2023-09-12T18:58:20.224Z,24.60
2023-09-12T19:00:48.028Z,24.55
2023-09-12T19:03:16.547Z,24.52
2023-09-12T19:05:44.646Z,24.52
2023-09-12T19:08:12.504Z,24.50
2023-09-12T19:10:40.502Z,24.44
2023-09-12T19:13:10.459Z,24.42
2023-09-12T19:15:38.284Z,24.39
2023-09-12T19:18:08.143Z,24.37
2023-09-12T19:20:36.319Z,24.35
2023-09-12T19:23:04.858Z,24.34
2023-09-12T19:25:32.731Z,24.29
2023-09-12T19:28:01.937Z,24.25
2023-09-12T19:30:32.894Z,24.27
2023-09-12T19:33:01.537Z,24.24
2023-09-12T19:35:29.555Z,24.22
2023-09-12T19:38:02.491Z,24.20
2023-09-12T19:40:30.340Z,24.16
2023-09-12T19:42:58.156Z,24.17
2023-09-12T19:45:26.078Z,24.15
2023-09-12T19:48:01.653Z,24.16
2023-09-12T19:50:31.764Z,24.10
2023-09-12T19:52:59.857Z,24.11
2023-09-12T19:55:27.704Z,24.11
2023-09-12T19:57:55.598Z,24.08
2023-09-12T20:00:23.404Z,24.07
2023-09-12T20:02:51.225Z,24.05
2023-09-12T20:05:22.865Z,24.01
2023-09-12T20:07:51.768Z,23.97
2023-09-12T20:10:21.663Z,23.94
2023-09-12T20:12:50.348Z,23.93
2023-09-12T20:15:18.565Z,23.91
2023-09-12T20:17:49.559Z,23.85
2023-09-12T20:20:17.457Z,23.84
2023-09-12T20:22:46.936Z,23.83
2023-09-12T20:25:14.731Z,23.85
2023-09-12T20:27:42.514Z,23.82
2023-09-12T20:30:11.312Z,23.83
2023-09-12T20:32:52.006Z,23.80
2023-09-12T20:35:26.523Z,23.76
2023-09-12T20:37:57.576Z,23.74
2023-09-12T20:40:26.102Z,23.70
2023-09-12T20:42:54.180Z,23.64
2023-09-12T20:45:22.321Z,23.62
2023-09-12T20:47:52.429Z,23.58
2023-09-12T20:50:26.498Z,23.55
2023-09-12T20:52:58.784Z,23.53
2023-09-12T20:55:26.964Z,23.51
2023-09-12T20:57:55.155Z,23.49
2023-09-12T21:00:23.621Z,23.46
2023-09-12T21:02:51.841Z,23.43
2023-09-12T21:05:19.922Z,23.41
2023-09-12T21:07:48.076Z,23.37
2023-09-12T21:10:17.394Z,23.36
2023-09-12T21:12:45.474Z,23.33
2023-09-12T21:15:13.397Z,23.37
2023-09-12T21:17:41.232Z,23.38
2023-09-12T21:20:09.941Z,23.41
2023-09-12T21:22:38.270Z,23.41
2023-09-12T21:25:06.715Z,23.40
2023-09-12T21:27:35.934Z,23.38
2023-09-12T21:30:05.630Z,23.34
2023-09-12T21:32:32.762Z,23.33
2023-09-12T21:35:11.235Z,23.30
2023-09-12T21:37:39.075Z,23.26
2023-09-12T21:40:08.896Z,23.13
2023-09-12T21:42:38.215Z,23.12
2023-09-12T21:45:07.167Z,23.09
2023-09-12T21:47:39.392Z,23.06
2023-09-12T21:50:08.168Z,23.06
2023-09-12T21:52:36.170Z,23.05
2023-09-12T21:55:05.567Z,23.01
2023-09-12T21:57:34.041Z,23.02
2023-09-12T22:00:17.576Z,23.04
2023-09-12T22:02:46.141Z,23.02
2023-09-12T22:05:14.052Z,23.01
2023-09-12T22:07:41.803Z,23.01
2023-09-12T22:10:10.329Z,22.97
2023-09-12T22:12:38.404Z,23.00
2023-09-12T22:15:09.972Z,22.95
2023-09-12T22:17:38.044Z,22.97
2023-09-12T22:20:06.815Z,22.95
2023-09-12T22:22:35.001Z,22.92
2023-09-12T22:25:02.885Z,22.89
2023-09-12T22:27:30.680Z,22.86
2023-09-12T22:29:58.628Z,22.86
2023-09-12T22:32:27.896Z,22.87
2023-09-12T22:34:55.664Z,22.85
2023-09-12T22:37:23.449Z,22.83
2023-09-12T22:39:52.323Z,22.83
2023-09-12T22:42:20.134Z,22.83
2023-09-12T22:44:47.835Z,22.80
2023-09-12T22:47:15.808Z,22.77
2023-09-12T22:49:45.256Z,22.74
2023-09-12T22:52:13.368Z,22.75
2023-09-12T22:54:41.431Z,22.72
2023-09-12T22:57:09.295Z,22.75
2023-09-12T22:59:37.214Z,22.76
2023-09-12T23:02:05.351Z,22.76
2023-09-12T23:04:33.335Z,22.75
2023-09-12T23:07:03.530Z,22.77
2023-09-12T23:09:31.466Z,22.75
2023-09-12T23:11:59.313Z,22.76
2023-09-12T23:14:27.555Z,22.76
2023-09-12T23:16:55.477Z,22.75
2023-09-12T23:19:23.241Z,22.76
2023-09-12T23:21:51.488Z,22.75
2023-09-12T23:24:20.711Z,22.75
2023-09-12T23:26:50.056Z,22.73
2023-09-12T23:29:17.889Z,22.74
2023-09-12T23:31:45.851Z,22.71
2023-09-12T23:34:13.815Z,22.71
2023-09-12T23:36:41.571Z,22.72
2023-09-12T23:39:09.352Z,22.72
2023-09-12T23:41:38.905Z,22.71
2023-09-12T23:44:06.888Z,22.70
2023-09-12T23:46:34.858Z,22.70
2023-09-12T23:49:04.051Z,22.70
2023-09-12T23:51:31.881Z,22.70
2023-09-12T23:53:59.674Z,22.64
2023-09-12T23:56:27.410Z,22.65
2023-09-12T23:58:56.486Z,22.64
